createdAt,value
2019-02-15T00:01:20.993Z,103234.34
2019-02-15T00:03:49.609Z,103237.14
2019-02-15T00:06:18.096Z,103235.50
2019-02-15T00:08:46.681Z,103242.91
2019-02-15T00:11:15.135Z,103239.10
2019-02-15T00:13:43.848Z,103237.52
2019-02-15T00:16:12.458Z,103239.58
2019-02-15T00:18:42.807Z,103242.59
2019-02-15T00:21:19.045Z,103235.05
2019-02-15T00:23:47.585Z,103237.72
2019-02-15T00:26:16.753Z,103233.16
2019-02-15T00:28:45.525Z,103227.78
2019-02-15T00:31:15.770Z,103224.17
2019-02-15T00:33:44.279Z,103225.52
2019-02-15T00:36:12.880Z,103223.12
2019-02-15T00:38:41.451Z,103222.01
2019-02-15T00:41:09.914Z,103222.42
2019-02-15T00:43:40.381Z,103227.96
2019-02-15T00:46:13.204Z,103230.95
2019-02-15T00:48:41.825Z,103230.10
2019-02-15T00:51:12.060Z,103232.92
2019-02-15T00:53:50.695Z,103234.17
2019-02-15T00:56:38.298Z,103231.93
2019-02-15T00:59:08.450Z,103227.08
2019-02-15T01:01:44.346Z,103225.53
2019-02-15T01:04:14.512Z,103226.95
2019-02-15T01:06:44.679Z,103220.97
2019-02-15T01:09:27.068Z,103226.93
2019-02-15T01:11:57.340Z,103222.85
2019-02-15T01:14:28.963Z,103221.73
2019-02-15T01:16:57.558Z,103222.58
2019-02-15T01:19:26.013Z,103219.36
2019-02-15T01:21:54.630Z,103216.27
2019-02-15T01:24:23.180Z,103216.70
2019-02-15T01:26:53.294Z,103216.07
2019-02-15T01:29:23.438Z,103211.77
2019-02-15T01:31:56.587Z,103207.22
2019-02-15T01:34:29.494Z,103206.17
2019-02-15T01:37:11.578Z,103208.78
2019-02-15T01:39:47.400Z,103201.45
2019-02-15T01:42:23.608Z,103193.41
2019-02-15T01:44:53.829Z,103190.81
2019-02-15T01:47:22.385Z,103190.28
2019-02-15T01:49:50.937Z,103193.08
2019-02-15T01:52:19.531Z,103191.51
2019-02-15T01:54:48.039Z,103196.34
2019-02-15T01:57:16.486Z,103191.09
2019-02-15T01:59:45.998Z,103182.66
2019-02-15T02:02:14.667Z,103184.30
2019-02-15T02:04:43.290Z,103182.66
2019-02-15T02:07:11.837Z,103173.14
2019-02-15T02:09:40.382Z,103170.58
2019-02-15T02:12:09.242Z,103167.45
2019-02-15T02:14:37.878Z,103168.80
2019-02-15T02:17:06.465Z,103165.09
2019-02-15T02:19:34.945Z,103165.94
2019-02-15T02:22:03.645Z,103162.73
2019-02-15T02:24:32.103Z,103159.60
2019-02-15T02:27:00.649Z,103153.62
2019-02-15T02:29:29.158Z,103153.52
2019-02-15T02:31:57.770Z,103154.35
2019-02-15T02:34:26.354Z,103158.03
2019-02-15T02:36:55.856Z,103155.97
2019-02-15T02:39:24.561Z,103150.20
2019-02-15T02:41:53.174Z,103146.59
2019-02-15T02:44:21.788Z,103146.59
2019-02-15T02:46:50.432Z,103149.36
2019-02-15T02:49:19.059Z,103140.61
2019-02-15T02:51:47.587Z,103137.94
2019-02-15T02:54:16.411Z,103144.20
2019-02-15T02:56:44.918Z,103139.65
2019-02-15T02:59:13.543Z,103132.95
2019-02-15T03:01:42.115Z,103145.43
2019-02-15T03:04:10.718Z,103143.25
2019-02-15T03:06:39.121Z,103146.54
2019-02-15T03:09:09.610Z,103141.41
2019-02-15T03:11:38.328Z,103137.48
2019-02-15T03:14:11.649Z,103144.09
2019-02-15T03:16:37.077Z,103146.66
2019-02-15T03:19:05.582Z,103137.50
2019-02-15T03:21:34.187Z,103137.59
2019-02-15T03:24:02.674Z,103139.44
2019-02-15T03:26:31.287Z,103142.00
2019-02-15T03:28:59.794Z,103141.29
2019-02-15T03:31:28.493Z,103137.27
2019-02-15T03:33:57.005Z,103140.25
2019-02-15T03:36:36.312Z,103136.73
2019-02-15T03:39:19.714Z,103135.44
2019-02-15T03:41:48.327Z,103129.88
2019-02-15T03:44:22.219Z,103129.36
2019-02-15T03:46:47.135Z,103137.23
2019-02-15T03:49:15.647Z,103130.44
2019-02-15T03:51:44.176Z,103127.97
2019-02-15T03:54:12.723Z,103121.03
2019-02-15T03:56:41.281Z,103123.16
2019-02-15T03:59:09.914Z,103124.27
2019-02-15T04:01:38.449Z,103120.03
2019-02-15T04:04:07.029Z,103121.86
2019-02-15T04:06:35.655Z,103113.89
2019-02-15T04:09:05.401Z,103117.08
2019-02-15T04:11:33.913Z,103111.63
2019-02-15T04:14:02.457Z,103118.66
2019-02-15T04:16:30.995Z,103117.53
2019-02-15T04:18:59.436Z,103116.50
2019-02-15T04:21:27.991Z,103122.06
2019-02-15T04:23:56.444Z,103124.53
2019-02-15T04:26:24.881Z,103117.12
2019-02-15T04:28:53.652Z,103117.91
2019-02-15T04:31:22.153Z,103115.61
2019-02-15T04:33:50.650Z,103111.28
2019-02-15T04:36:19.202Z,103113.03
2019-02-15T04:38:47.747Z,103115.33
2019-02-15T04:41:16.199Z,103117.52
2019-02-15T04:43:44.822Z,103115.88
2019-02-15T04:46:13.335Z,103125.94
2019-02-15T04:48:41.820Z,103125.45
2019-02-15T04:51:10.302Z,103123.45
2019-02-15T04:53:38.827Z,103126.17
2019-02-15T04:56:07.430Z,103131.48
2019-02-15T04:58:36.245Z,103138.69
2019-02-15T05:01:04.792Z,103138.37
2019-02-15T05:03:33.425Z,103137.52
2019-02-15T05:06:01.956Z,103143.64
2019-02-15T05:08:30.542Z,103138.24
2019-02-15T05:10:59.096Z,103131.56
2019-02-15T05:13:27.580Z,103125.97
2019-02-15T05:15:56.730Z,103132.23
2019-02-15T05:18:25.273Z,103125.05
2019-02-15T05:20:53.848Z,103131.77
2019-02-15T05:23:22.492Z,103135.62
2019-02-15T05:25:50.974Z,103137.41
2019-02-15T05:28:19.425Z,103133.55
2019-02-15T05:30:48.001Z,103135.46
2019-02-15T05:33:16.694Z,103133.42
2019-02-15T05:35:45.330Z,103128.49
2019-02-15T05:38:13.912Z,103126.42
2019-02-15T05:40:42.393Z,103125.77
2019-02-15T05:43:10.808Z,103119.00
2019-02-15T05:45:39.443Z,103121.33
2019-02-15T05:48:08.053Z,103124.45
2019-02-15T05:50:36.669Z,103129.21
2019-02-15T05:53:05.193Z,103132.83
2019-02-15T05:55:33.648Z,103136.60
2019-02-15T05:58:02.251Z,103136.00
2019-02-15T06:00:36.958Z,103136.92
2019-02-15T06:03:01.170Z,103141.63
2019-02-15T06:05:29.653Z,103136.44
2019-02-15T06:07:58.237Z,103139.09
2019-02-15T06:10:26.832Z,103128.94
2019-02-15T06:12:55.432Z,103128.44
2019-02-15T06:15:24.013Z,103119.10
2019-02-15T06:17:52.711Z,103122.30
2019-02-15T06:20:21.287Z,103122.06
2019-02-15T06:22:49.764Z,103124.64
2019-02-15T06:25:18.227Z,103125.41
2019-02-15T06:27:46.743Z,103131.62
2019-02-15T06:30:15.357Z,103133.83
2019-02-15T06:32:43.979Z,103138.58
2019-02-15T06:35:12.582Z,103127.61
2019-02-15T06:37:41.040Z,103126.37
2019-02-15T06:40:09.723Z,103125.66
2019-02-15T06:42:38.197Z,103137.41
2019-02-15T06:45:07.726Z,103137.41
2019-02-15T06:47:36.276Z,103124.52
2019-02-15T06:50:06.496Z,103129.35
2019-02-15T06:52:35.060Z,103132.09
2019-02-15T06:55:03.605Z,103138.58
2019-02-15T06:57:32.234Z,103127.91
2019-02-15T07:00:18.716Z,103127.45
2019-02-15T07:03:03.893Z,103137.00
2019-02-15T07:05:32.388Z,103144.74
2019-02-15T07:08:00.871Z,103144.10
2019-02-15T07:10:29.298Z,103149.21
2019-02-15T07:12:58.019Z,103155.88
2019-02-15T07:15:33.444Z,103147.73
2019-02-15T07:17:56.879Z,103149.56
2019-02-15T07:20:25.465Z,103144.35
2019-02-15T07:22:54.108Z,103145.52
2019-02-15T07:25:22.707Z,103149.17
2019-02-15T07:27:51.341Z,103139.13
2019-02-15T07:30:19.987Z,103139.13
2019-02-15T07:32:48.570Z,103146.34
2019-02-15T07:35:17.183Z,103146.09
2019-02-15T07:37:45.611Z,103146.41
2019-02-15T07:40:14.164Z,103148.87
2019-02-15T07:42:42.640Z,103148.71
2019-02-15T07:45:11.654Z,103149.73
2019-02-15T07:47:42.188Z,103143.70
2019-02-15T07:50:14.452Z,103138.61
2019-02-15T07:52:43.111Z,103134.05
2019-02-15T07:55:11.698Z,103136.00
2019-02-15T07:57:40.130Z,103132.22
2019-02-15T08:00:14.273Z,103135.16
2019-02-15T08:02:42.847Z,103130.96
2019-02-15T08:05:11.577Z,103131.79
2019-02-15T08:07:40.147Z,103135.16
2019-02-15T08:10:11.003Z,103128.11
2019-02-15T08:12:39.632Z,103129.80
2019-02-15T08:15:09.849Z,103131.06
2019-02-15T08:17:38.378Z,103134.76
2019-02-15T08:20:10.010Z,103126.30
2019-02-15T08:22:38.564Z,103128.48
2019-02-15T08:25:07.845Z,103119.04
2019-02-15T08:27:36.455Z,103118.81
2019-02-15T08:30:07.394Z,103120.55
2019-02-15T08:32:36.232Z,103110.19
2019-02-15T08:35:06.258Z,103104.32
2019-02-15T08:37:34.826Z,103102.27
2019-02-15T08:40:03.872Z,103094.97
2019-02-15T08:42:32.387Z,103089.35
2019-02-15T08:45:01.034Z,103085.71
2019-02-15T08:47:29.487Z,103085.42
2019-02-15T08:49:58.037Z,103085.36
2019-02-15T08:52:27.610Z,103079.61
2019-02-15T08:54:56.137Z,103073.86
2019-02-15T08:57:24.696Z,103072.48
2019-02-15T08:59:53.220Z,103069.30
2019-02-15T09:02:22.707Z,103071.21
2019-02-15T09:04:51.330Z,103063.94
2019-02-15T09:07:19.813Z,103064.05
2019-02-15T09:09:48.263Z,103055.93
2019-02-15T09:12:16.881Z,103046.79
2019-02-15T09:14:45.473Z,103041.45
2019-02-15T09:17:14.096Z,103042.03
2019-02-15T09:19:42.676Z,103038.48
2019-02-15T09:22:11.388Z,103035.36
2019-02-15T09:24:39.933Z,103039.36
2019-02-15T09:27:10.195Z,103028.05
2019-02-15T09:29:38.759Z,103030.88
2019-02-15T09:32:07.437Z,103026.59
2019-02-15T09:34:36.044Z,103030.44
2019-02-15T09:37:04.654Z,103026.38
2019-02-15T09:39:33.258Z,103025.38
2019-02-15T09:42:01.812Z,103021.89
2019-02-15T09:44:30.397Z,103023.55
2019-02-15T09:46:58.882Z,103018.67
2019-02-15T09:49:27.488Z,103019.51
2019-02-15T09:51:56.036Z,103023.06
2019-02-15T09:54:24.502Z,103016.80
2019-02-15T09:56:52.941Z,103015.16
2019-02-15T09:59:21.430Z,103014.61
2019-02-15T10:01:50.063Z,103013.79
2019-02-15T10:04:18.584Z,103012.68
2019-02-15T10:06:47.211Z,103009.41
2019-02-15T10:09:15.795Z,103008.27
2019-02-15T10:11:44.337Z,103016.58
2019-02-15T10:14:12.854Z,103007.14
2019-02-15T10:16:41.489Z,103008.30
2019-02-15T10:19:10.092Z,102997.88
2019-02-15T10:21:38.647Z,103002.62
2019-02-15T10:24:07.178Z,102999.36
2019-02-15T10:26:38.129Z,102996.56
2019-02-15T10:29:06.728Z,102992.06
2019-02-15T10:31:35.518Z,102990.02
2019-02-15T10:34:04.045Z,102996.34
2019-02-15T10:36:32.641Z,102996.08
2019-02-15T10:39:01.264Z,102997.58
2019-02-15T10:41:29.768Z,102992.83
2019-02-15T10:43:58.322Z,102996.17
2019-02-15T10:46:26.908Z,102991.76
2019-02-15T10:48:55.525Z,102988.34
2019-02-15T10:51:24.032Z,102987.64
2019-02-15T10:53:52.636Z,102982.41
2019-02-15T10:56:21.143Z,102988.30
2019-02-15T10:58:49.598Z,102973.71
2019-02-15T11:01:18.139Z,102974.02
2019-02-15T11:03:46.743Z,102978.97
2019-02-15T11:06:15.204Z,102972.69
2019-02-15T11:08:43.689Z,102967.28
2019-02-15T11:11:12.308Z,102970.72
2019-02-15T11:13:40.829Z,102972.89
2019-02-15T11:16:09.527Z,102969.41
2019-02-15T11:18:38.102Z,102968.37
2019-02-15T11:21:06.763Z,102962.09
2019-02-15T11:23:35.352Z,102965.36
2019-02-15T11:26:04.666Z,102957.13
2019-02-15T11:28:33.322Z,102960.69
2019-02-15T11:31:01.798Z,102960.12
2019-02-15T11:33:32.494Z,102961.69
2019-02-15T11:36:00.775Z,102960.88
2019-02-15T11:38:29.303Z,102954.02
2019-02-15T11:40:57.889Z,102948.42
2019-02-15T11:43:26.593Z,102956.26
2019-02-15T11:45:55.118Z,102949.22
2019-02-15T11:48:23.683Z,102943.59
2019-02-15T11:50:52.371Z,102939.54
2019-02-15T11:53:20.949Z,102931.58
2019-02-15T11:55:49.497Z,102929.81
2019-02-15T11:58:18.095Z,102926.59
2019-02-15T12:00:46.662Z,102929.83
2019-02-15T12:03:15.200Z,102919.55
2019-02-15T12:05:43.817Z,102916.91
2019-02-15T12:08:12.351Z,102908.09
2019-02-15T12:10:40.976Z,102907.66
2019-02-15T12:13:09.939Z,102906.38
2019-02-15T12:15:38.545Z,102905.05
2019-02-15T12:18:07.176Z,102896.73
2019-02-15T12:20:35.692Z,102898.23
2019-02-15T12:23:04.343Z,102890.08
2019-02-15T12:25:32.903Z,102879.52
2019-02-15T12:28:01.486Z,102879.06
2019-02-15T12:30:30.161Z,102877.95
2019-02-15T12:32:59.255Z,102867.14
2019-02-15T12:35:27.930Z,102865.55
2019-02-15T12:37:56.499Z,102865.27
2019-02-15T12:40:25.047Z,102863.42
2019-02-15T12:42:53.530Z,102858.50
2019-02-15T12:45:22.918Z,102853.24
2019-02-15T12:47:51.547Z,102852.95
2019-02-15T12:50:21.142Z,102857.66
2019-02-15T12:52:49.806Z,102843.23
2019-02-15T12:55:18.403Z,102843.66
2019-02-15T12:57:47.043Z,102839.34
2019-02-15T13:00:16.603Z,102836.92
2019-02-15T13:02:45.247Z,102836.77
2019-02-15T13:05:14.768Z,102829.95
2019-02-15T13:07:43.355Z,102827.28
2019-02-15T13:10:20.385Z,102820.58
2019-02-15T13:12:48.943Z,102819.84
2019-02-15T13:15:17.457Z,102817.80
2019-02-15T13:17:46.124Z,102813.67
2019-02-15T13:20:14.752Z,102804.94
2019-02-15T13:22:43.357Z,102801.70
2019-02-15T13:25:12.035Z,102800.57
2019-02-15T13:27:40.605Z,102794.73
2019-02-15T13:30:13.967Z,102794.50
2019-02-15T13:32:42.627Z,102780.73
2019-02-15T13:35:13.747Z,102779.27
2019-02-15T13:37:42.411Z,102769.02
2019-02-15T13:40:11.003Z,102773.14
2019-02-15T13:42:39.565Z,102774.00
2019-02-15T13:45:14.225Z,102766.31
2019-02-15T13:47:42.838Z,102765.03
2019-02-15T13:50:16.200Z,102761.39
2019-02-15T13:52:44.897Z,102760.16
2019-02-15T13:55:13.485Z,102763.19
2019-02-15T13:57:42.062Z,102757.92
2019-02-15T14:00:14.227Z,102747.63
2019-02-15T14:02:42.790Z,102746.73
2019-02-15T14:05:14.138Z,102737.05
2019-02-15T14:07:42.712Z,102737.05
2019-02-15T14:10:14.890Z,102737.58
2019-02-15T14:12:43.491Z,102739.80
2019-02-15T14:15:12.579Z,102732.91
2019-02-15T14:17:47.719Z,102728.04
2019-02-15T14:20:13.182Z,102729.75
2019-02-15T14:22:41.774Z,102728.94
2019-02-15T14:25:12.562Z,102728.94
2019-02-15T14:30:16.877Z,102721.95
2019-02-15T14:32:45.517Z,102721.31
2019-02-15T14:35:16.787Z,102714.73
2019-02-15T14:37:45.427Z,102718.52
2019-02-15T14:40:14.508Z,102709.48
2019-02-15T14:42:43.276Z,102714.02
2019-02-15T14:45:12.935Z,102713.15
2019-02-15T14:47:41.601Z,102703.11
2019-02-15T14:50:10.996Z,102702.98
2019-02-15T14:52:39.621Z,102700.26
2019-02-15T14:55:09.736Z,102696.52
2019-02-15T14:57:38.448Z,102702.58
2019-02-15T15:00:10.011Z,102694.25
2019-02-15T15:02:38.649Z,102688.31
2019-02-15T15:05:07.924Z,102688.16
2019-02-15T15:07:36.556Z,102681.42
2019-02-15T15:10:07.849Z,102679.73
2019-02-15T15:12:36.357Z,102675.94
2019-02-15T15:15:07.851Z,102676.59
2019-02-15T15:17:36.411Z,102668.13
2019-02-15T15:20:07.708Z,102668.20
2019-02-15T15:22:36.368Z,102665.90
2019-02-15T15:25:06.866Z,102663.03
2019-02-15T15:27:35.416Z,102653.80
2019-02-15T15:30:04.434Z,102656.44
2019-02-15T15:32:35.233Z,102650.34
2019-02-15T15:35:04.009Z,102652.45
2019-02-15T15:37:32.488Z,102643.48
2019-02-15T15:40:01.073Z,102643.03
2019-02-15T15:42:29.694Z,102647.16
2019-02-15T15:44:58.258Z,102643.55
2019-02-15T15:47:26.851Z,102640.27
2019-02-15T15:49:55.427Z,102641.99
2019-02-15T15:52:23.937Z,102636.33
2019-02-15T15:54:52.654Z,102636.79
2019-02-15T15:57:21.273Z,102633.34
2019-02-15T15:59:50.032Z,102625.83
2019-02-15T16:02:18.724Z,102630.39
2019-02-15T16:04:47.449Z,102621.91
2019-02-15T16:07:16.379Z,102623.69
2019-02-15T16:09:45.037Z,102624.11
2019-02-15T16:12:13.791Z,102618.47
2019-02-15T16:14:42.458Z,102621.53
2019-02-15T16:17:11.086Z,102615.27
2019-02-15T16:19:48.830Z,102614.06
2019-02-15T16:22:09.991Z,102617.92
2019-02-15T16:24:38.469Z,102615.44
2019-02-15T16:27:07.115Z,102618.30
2019-02-15T16:29:35.751Z,102617.95
2019-02-15T16:32:05.966Z,102624.50
2019-02-15T16:34:34.498Z,102619.94
2019-02-15T16:37:03.106Z,102620.04
2019-02-15T16:39:31.716Z,102624.45
2019-02-15T16:42:00.167Z,102621.94
2019-02-15T16:44:28.725Z,102615.59
2019-02-15T16:46:57.241Z,102615.59
2019-02-15T16:49:25.762Z,102619.44
2019-02-15T16:51:54.300Z,102625.16
2019-02-15T16:54:22.840Z,102625.50
2019-02-15T16:56:51.306Z,102623.69
2019-02-15T16:59:19.895Z,102623.34
2019-02-15T17:01:48.620Z,102617.45
2019-02-15T17:04:17.275Z,102618.03
2019-02-15T17:06:45.916Z,102620.48
2019-02-15T17:09:17.449Z,102619.77
2019-02-15T17:11:46.066Z,102620.75
2019-02-15T17:14:14.639Z,102631.00
2019-02-15T17:16:43.271Z,102631.00
2019-02-15T17:19:11.848Z,102630.77
2019-02-15T17:21:40.375Z,102625.88
2019-02-15T17:24:09.527Z,102625.55
2019-02-15T17:26:38.050Z,102620.98
2019-02-15T17:29:08.192Z,102623.86
2019-02-15T17:31:36.751Z,102631.32
2019-02-15T17:34:05.378Z,102625.70
2019-02-15T17:36:33.892Z,102629.25
2019-02-15T17:39:02.478Z,102622.13
2019-02-15T17:41:31.363Z,102624.23
2019-02-15T17:44:00.064Z,102631.58
2019-02-15T17:46:28.552Z,102628.48
2019-02-15T17:49:00.802Z,102628.86
2019-02-15T17:51:27.296Z,102628.42
2019-02-15T17:53:55.912Z,102617.95
2019-02-15T17:56:24.615Z,102617.53
2019-02-15T17:58:53.212Z,102612.97
2019-02-15T18:01:21.881Z,102613.57
2019-02-15T18:03:50.420Z,102612.56
2019-02-15T18:06:19.057Z,102606.19
2019-02-15T18:08:47.685Z,102609.33
2019-02-15T18:11:16.264Z,102608.78
2019-02-15T18:13:44.892Z,102611.35
2019-02-15T18:16:14.446Z,102601.59
2019-02-15T18:18:43.039Z,102604.92
2019-02-15T18:21:12.866Z,102603.91
2019-02-15T18:23:41.590Z,102604.21
2019-02-15T18:26:10.166Z,102602.30
2019-02-15T18:28:38.709Z,102605.28
2019-02-15T18:31:07.291Z,102601.74
2019-02-15T18:33:35.949Z,102600.04
2019-02-15T18:36:05.476Z,102593.94
2019-02-15T18:38:34.183Z,102588.48
2019-02-15T18:41:02.750Z,102591.59
2019-02-15T18:43:31.384Z,102589.51
2019-02-15T18:46:00.098Z,102587.38
2019-02-15T18:48:28.620Z,102578.00
2019-02-15T18:50:58.778Z,102580.48
2019-02-15T18:53:27.165Z,102578.64
2019-02-15T18:55:55.864Z,102582.44
2019-02-15T18:58:24.407Z,102582.35
2019-02-15T19:00:53.001Z,102588.27
2019-02-15T19:03:21.786Z,102576.47
2019-02-15T19:05:50.390Z,102578.88
2019-02-15T19:08:18.962Z,102583.55
2019-02-15T19:10:47.618Z,102584.59
2019-02-15T19:13:16.217Z,102580.50
2019-02-15T19:15:44.903Z,102578.88
2019-02-15T19:18:13.558Z,102572.12
2019-02-15T19:20:42.192Z,102578.68
2019-02-15T19:23:10.704Z,102572.23
2019-02-15T19:25:40.819Z,102574.30
2019-02-15T19:28:09.336Z,102573.55
2019-02-15T19:30:37.889Z,102577.59
2019-02-15T19:33:08.053Z,102578.84
2019-02-15T19:35:36.528Z,102576.45
2019-02-15T19:38:05.124Z,102571.61
2019-02-15T19:40:33.769Z,102570.89
2019-02-15T19:43:05.459Z,102572.42
2019-02-15T19:45:34.076Z,102574.75
2019-02-15T19:48:02.593Z,102566.41
2019-02-15T19:50:31.380Z,102568.09
2019-02-15T19:52:59.994Z,102570.01
2019-02-15T19:55:28.715Z,102570.20
2019-02-15T19:57:57.315Z,102571.73
2019-02-15T20:00:25.981Z,102562.16
2019-02-15T20:02:54.606Z,102572.94
2019-02-15T20:05:23.210Z,102558.98
2019-02-15T20:07:51.837Z,102561.44
2019-02-15T20:10:22.331Z,102557.45
2019-02-15T20:12:50.938Z,102560.24
2019-02-15T20:15:19.718Z,102560.75
2019-02-15T20:17:48.334Z,102555.79
2019-02-15T20:20:17.731Z,102549.52
2019-02-15T20:22:46.370Z,102549.42
2019-02-15T20:25:15.075Z,102553.52
2019-02-15T20:27:43.767Z,102552.77
2019-02-15T20:30:15.335Z,102553.73
2019-02-15T20:32:43.959Z,102547.25
2019-02-15T20:35:13.562Z,102550.75
2019-02-15T20:37:42.465Z,102550.30
2019-02-15T20:40:12.481Z,102553.64
2019-02-15T20:42:41.244Z,102551.95
2019-02-15T20:45:21.336Z,102551.46
2019-02-15T20:50:35.472Z,102553.88
2019-02-15T20:53:04.091Z,102551.91
2019-02-15T20:55:32.577Z,102549.59
2019-02-15T20:58:01.115Z,102547.41
2019-02-15T21:00:30.297Z,102541.09
2019-02-15T21:02:58.818Z,102540.94
2019-02-15T21:05:27.484Z,102542.61
2019-02-15T21:07:56.098Z,102542.16
2019-02-15T21:10:24.783Z,102538.72
2019-02-15T21:12:53.321Z,102543.67
2019-02-15T21:15:24.095Z,102539.83
2019-02-15T21:17:53.067Z,102542.82
2019-02-15T21:20:21.704Z,102544.58
2019-02-15T21:22:50.300Z,102540.69
2019-02-15T21:25:18.892Z,102538.27
2019-02-15T21:27:47.468Z,102543.34
2019-02-15T21:30:18.108Z,102540.08
2019-02-15T21:32:46.857Z,102540.92
2019-02-15T21:35:15.476Z,102540.08
2019-02-15T21:37:44.074Z,102541.84
2019-02-15T21:40:17.212Z,102550.12
2019-02-15T21:42:45.755Z,102543.52
2019-02-15T21:45:14.556Z,102544.16
2019-02-15T21:47:43.169Z,102549.11
2019-02-15T21:50:17.219Z,102544.30
2019-02-15T21:52:44.571Z,102548.05
2019-02-15T21:55:16.470Z,102544.60
2019-02-15T21:57:45.099Z,102542.69
2019-02-15T22:00:16.600Z,102532.02
2019-02-15T22:02:45.275Z,102532.28
2019-02-15T22:05:14.497Z,102533.52
2019-02-15T22:07:43.171Z,102521.30
2019-02-15T22:10:11.672Z,102522.14
2019-02-15T22:12:41.624Z,102529.53
2019-02-15T22:15:14.901Z,102526.81
2019-02-15T22:17:43.415Z,102527.95
2019-02-15T22:20:13.735Z,102528.83
2019-02-15T22:22:42.392Z,102524.75
2019-02-15T22:25:11.089Z,102528.25
2019-02-15T22:27:39.687Z,102522.09
2019-02-15T22:30:18.334Z,102525.55
2019-02-15T22:32:46.941Z,102526.39
2019-02-15T22:35:15.659Z,102526.10
2019-02-15T22:37:44.252Z,102520.11
2019-02-15T22:40:30.017Z,102524.73
2019-02-15T22:43:01.702Z,102525.55
2019-02-15T22:45:30.229Z,102521.23
2019-02-15T22:47:58.805Z,102516.62
2019-02-15T22:50:35.696Z,102518.37
2019-02-15T22:52:57.692Z,102519.17
2019-02-15T22:55:26.345Z,102522.59
2019-02-15T22:57:54.849Z,102517.35
2019-02-15T23:00:30.899Z,102515.73
2019-02-15T23:02:59.524Z,102522.86
2019-02-15T23:05:28.160Z,102522.08
2019-02-15T23:07:56.714Z,102521.34
2019-02-15T23:10:25.318Z,102519.48
2019-02-15T23:12:53.867Z,102515.14
2019-02-15T23:15:22.440Z,102513.56
2019-02-15T23:17:51.310Z,102510.59
2019-02-15T23:20:19.929Z,102507.66
2019-02-15T23:22:48.509Z,102505.50
2019-02-15T23:25:17.143Z,102504.23
2019-02-15T23:27:45.650Z,102510.55
2019-02-15T23:30:14.223Z,102507.87
2019-02-15T23:32:42.878Z,102510.63
2019-02-15T23:35:11.538Z,102508.23
2019-02-15T23:37:39.988Z,102509.59
2019-02-15T23:40:08.577Z,102505.78
2019-02-15T23:42:37.139Z,102508.24
2019-02-15T23:45:06.322Z,102504.16
2019-02-15T23:47:34.934Z,102502.00
2019-02-15T23:50:03.614Z,102506.89
2019-02-15T23:52:32.190Z,102506.61
2019-02-15T23:55:00.733Z,102515.02
2019-02-15T23:57:29.485Z,102509.50
2019-02-15T23:59:57.994Z,102512.16
